createdAt,value
2023-03-08T00:01:25.680Z,33.47
2023-03-08T00:03:58.643Z,32.47
2023-03-08T00:06:27.647Z,34.53
2023-03-08T00:09:01.134Z,36.00
2023-03-08T00:11:29.892Z,32.85
2023-03-08T00:13:59.026Z,35.88
2023-03-08T00:16:26.403Z,37.35
2023-03-08T00:18:54.032Z,34.88
2023-03-08T00:21:21.864Z,31.58
2023-03-08T00:23:56.784Z,34.20
2023-03-08T00:26:24.095Z,36.05
2023-03-08T00:28:52.905Z,37.40
2023-03-08T00:31:20.324Z,35.53
2023-03-08T00:33:48.092Z,37.13
2023-03-08T00:36:18.890Z,36.15
2023-03-08T00:38:48.432Z,38.85
2023-03-08T00:41:16.129Z,37.63
2023-03-08T00:43:44.101Z,34.22
2023-03-08T00:46:12.455Z,36.88
2023-03-08T00:48:41.209Z,38.30
2023-03-08T00:51:12.193Z,33.47
2023-03-08T00:53:39.840Z,35.20
2023-03-08T00:56:07.697Z,31.55
2023-03-08T00:58:38.630Z,30.08
2023-03-08T01:01:08.090Z,30.17
2023-03-08T01:03:35.897Z,30.77
2023-03-08T01:06:09.594Z,31.25
2023-03-08T01:08:37.410Z,32.70
2023-03-08T01:11:05.353Z,34.25
2023-03-08T01:13:36.306Z,31.88
2023-03-08T01:16:03.767Z,35.13
2023-03-08T01:18:32.669Z,34.78
2023-03-08T01:21:03.699Z,34.90
2023-03-08T01:23:32.665Z,34.60
2023-03-08T01:26:07.032Z,31.13
2023-03-08T01:28:35.688Z,28.17
2023-03-08T01:31:20.910Z,29.42
2023-03-08T01:33:49.616Z,30.42
2023-03-08T01:36:21.286Z,32.65
2023-03-08T01:38:49.125Z,32.03
2023-03-08T01:41:24.989Z,30.30
2023-03-08T01:43:54.046Z,29.35
2023-03-08T01:46:34.927Z,31.35
2023-03-08T01:49:33.462Z,31.33
2023-03-08T01:52:08.509Z,30.55
2023-03-08T01:54:42.483Z,29.75
2023-03-08T01:57:22.289Z,33.80
2023-03-08T01:59:53.760Z,32.88
2023-03-08T02:02:28.576Z,30.95
2023-03-08T02:04:56.181Z,26.48
2023-03-08T02:07:23.520Z,29.73
2023-03-08T02:09:51.198Z,29.05
2023-03-08T02:12:19.944Z,29.23
2023-03-08T02:14:48.197Z,31.65
2023-03-08T02:17:15.752Z,32.03
2023-03-08T02:19:55.318Z,30.42
2023-03-08T02:22:23.236Z,30.83
2023-03-08T02:24:50.893Z,31.33
2023-03-08T02:27:24.994Z,32.53
2023-03-08T02:29:52.900Z,27.92
2023-03-08T02:32:20.461Z,32.92
2023-03-08T02:34:48.025Z,32.45
2023-03-08T02:37:15.272Z,34.80
2023-03-08T02:39:42.801Z,30.10
2023-03-08T02:42:10.334Z,28.60
2023-03-08T02:44:37.881Z,27.17
2023-03-08T02:47:05.443Z,28.38
2023-03-08T02:49:33.050Z,27.67
2023-03-08T02:52:00.357Z,28.65
2023-03-08T02:54:28.071Z,25.77
2023-03-08T02:56:55.327Z,26.23
2023-03-08T02:59:24.035Z,27.23
2023-03-08T03:01:51.391Z,29.85
2023-03-08T03:04:19.362Z,29.00
2023-03-08T03:06:46.622Z,30.15
2023-03-08T03:09:14.280Z,27.55
2023-03-08T03:11:41.950Z,29.73
2023-03-08T03:14:09.457Z,33.60
2023-03-08T03:16:37.625Z,32.42
2023-03-08T03:19:05.246Z,30.92
2023-03-08T03:21:33.128Z,27.02
2023-03-08T03:24:00.804Z,32.72
2023-03-08T03:26:28.782Z,29.83
2023-03-08T03:28:58.057Z,30.92
2023-03-08T03:31:26.744Z,29.65
2023-03-08T03:33:54.817Z,28.00
2023-03-08T03:36:23.327Z,30.10
2023-03-08T03:38:51.753Z,24.83
2023-03-08T03:41:23.113Z,27.58
2023-03-08T03:43:51.331Z,23.55
2023-03-08T03:46:21.359Z,24.42
2023-03-08T03:48:49.114Z,22.60
2023-03-08T03:51:20.564Z,22.80
2023-03-08T03:53:49.202Z,20.55
2023-03-08T03:56:20.454Z,21.88
2023-03-08T03:58:48.999Z,22.38
2023-03-08T04:01:31.561Z,23.20
2023-03-08T04:03:59.935Z,22.50
2023-03-08T04:06:30.445Z,21.70
2023-03-08T04:09:08.462Z,22.33
2023-03-08T04:11:39.601Z,22.33
2023-03-08T04:14:08.097Z,22.45
2023-03-08T04:16:38.636Z,19.92
2023-03-08T04:19:11.674Z,20.52
2023-03-08T04:21:39.523Z,21.20
2023-03-08T04:24:07.604Z,24.00
2023-03-08T04:26:36.343Z,21.02
2023-03-08T04:29:06.378Z,22.33
2023-03-08T04:31:35.626Z,22.83
2023-03-08T04:34:05.469Z,21.73
2023-03-08T04:36:32.849Z,22.60
2023-03-08T04:39:00.446Z,22.27
2023-03-08T04:41:27.750Z,22.50
2023-03-08T04:43:57.935Z,23.20
2023-03-08T04:46:28.613Z,25.83
2023-03-08T04:48:56.356Z,21.02
2023-03-08T04:51:26.585Z,24.27
2023-03-08T04:53:54.252Z,25.70
2023-03-08T04:56:21.924Z,24.90
2023-03-08T04:58:49.772Z,21.15
2023-03-08T05:01:20.784Z,23.67
2023-03-08T05:03:51.603Z,25.17
2023-03-08T05:06:22.046Z,21.05
2023-03-08T05:08:49.652Z,30.75
2023-03-08T05:11:29.554Z,22.30
2023-03-08T05:13:59.608Z,22.55
2023-03-08T05:16:27.694Z,21.67
2023-03-08T05:18:55.250Z,29.58
2023-03-08T05:21:24.698Z,26.42
2023-03-08T05:23:52.283Z,23.65
2023-03-08T05:26:19.738Z,27.00
2023-03-08T05:28:47.285Z,24.73
2023-03-08T05:31:18.213Z,23.40
2023-03-08T05:33:50.965Z,23.48
2023-03-08T05:36:19.686Z,21.92
2023-03-08T05:38:48.190Z,21.83
2023-03-08T05:41:17.057Z,26.00
2023-03-08T05:43:44.879Z,25.77
2023-03-08T05:46:18.879Z,24.00
2023-03-08T05:48:46.912Z,21.95
2023-03-08T05:51:17.744Z,22.40
2023-03-08T05:53:45.874Z,30.77
2023-03-08T05:56:22.583Z,22.10
2023-03-08T05:58:51.812Z,25.50
2023-03-08T06:01:25.956Z,22.30
2023-03-08T06:03:57.423Z,22.83
2023-03-08T06:06:27.137Z,24.80
2023-03-08T06:08:56.386Z,25.52
2023-03-08T06:11:24.410Z,26.40
2023-03-08T06:13:52.118Z,23.67
2023-03-08T06:16:19.494Z,24.00
2023-03-08T06:18:47.248Z,22.85
2023-03-08T06:21:17.889Z,22.77
2023-03-08T06:23:46.841Z,27.60
2023-03-08T06:26:15.484Z,20.52
2023-03-08T06:28:43.798Z,24.17
2023-03-08T06:31:15.925Z,24.15
2023-03-08T06:33:43.777Z,23.08
2023-03-08T06:36:18.071Z,24.73
2023-03-08T06:38:47.047Z,21.48
2023-03-08T06:41:17.205Z,20.95
2023-03-08T06:43:44.929Z,23.15
2023-03-08T06:46:17.214Z,20.85
2023-03-08T06:48:47.829Z,21.98
2023-03-08T06:51:15.536Z,24.27
2023-03-08T06:53:43.158Z,22.67
2023-03-08T06:56:14.678Z,19.98
2023-03-08T06:58:43.123Z,21.98
2023-03-08T07:01:12.967Z,22.85
2023-03-08T07:03:41.143Z,22.42
2023-03-08T07:06:10.481Z,21.10
2023-03-08T07:08:41.996Z,23.10
2023-03-08T07:11:10.024Z,20.35
2023-03-08T07:13:38.585Z,20.33
2023-03-08T07:16:11.252Z,20.30
2023-03-08T07:18:39.890Z,20.35
2023-03-08T07:21:10.325Z,20.17
2023-03-08T07:23:37.914Z,22.15
2023-03-08T07:26:09.587Z,17.67
2023-03-08T07:28:37.449Z,18.60
2023-03-08T07:31:05.689Z,18.08
2023-03-08T07:33:33.934Z,17.42
2023-03-08T07:36:02.540Z,19.75
2023-03-08T07:38:30.448Z,20.65
2023-03-08T07:40:57.813Z,16.05
2023-03-08T07:43:25.580Z,16.63
2023-03-08T07:45:52.932Z,18.90
2023-03-08T07:48:20.553Z,16.73
2023-03-08T07:50:47.808Z,15.10
2023-03-08T07:53:15.835Z,15.65
2023-03-08T07:55:43.100Z,17.05
2023-03-08T07:58:10.743Z,16.85
2023-03-08T08:00:38.036Z,15.63
2023-03-08T08:03:05.654Z,21.05
2023-03-08T08:05:36.649Z,23.80
2023-03-08T08:08:04.754Z,19.73
2023-03-08T08:10:32.062Z,18.35
2023-03-08T08:12:59.691Z,15.27
2023-03-08T08:15:27.365Z,18.55
2023-03-08T08:17:54.906Z,21.30
2023-03-08T08:20:22.522Z,17.85
2023-03-08T08:22:53.305Z,18.05
2023-03-08T08:25:21.707Z,18.23
2023-03-08T08:27:51.076Z,18.30
2023-03-08T08:30:18.623Z,18.00
2023-03-08T08:32:46.225Z,22.77
2023-03-08T08:35:13.864Z,16.98
2023-03-08T08:37:41.444Z,15.90
2023-03-08T08:40:10.701Z,17.48
2023-03-08T08:42:39.369Z,16.05
2023-03-08T08:45:07.502Z,20.35
2023-03-08T08:47:35.205Z,18.00
2023-03-08T08:50:02.675Z,15.05
2023-03-08T08:52:30.718Z,21.08
2023-03-08T08:54:58.211Z,17.90
2023-03-08T08:57:25.862Z,19.42
2023-03-08T08:59:53.214Z,16.50
2023-03-08T09:02:21.024Z,17.73
2023-03-08T09:04:48.924Z,17.80
2023-03-08T09:07:16.704Z,17.02
2023-03-08T09:09:44.104Z,17.17
2023-03-08T09:12:11.849Z,16.48
2023-03-08T09:14:39.150Z,18.15
2023-03-08T09:17:07.477Z,15.75
2023-03-08T09:19:36.660Z,16.80
2023-03-08T09:22:04.892Z,16.58
2023-03-08T09:24:33.958Z,17.15
2023-03-08T09:27:01.703Z,15.63
2023-03-08T09:29:29.007Z,15.05
2023-03-08T09:31:58.531Z,13.73
2023-03-08T09:34:26.787Z,13.32
2023-03-08T09:36:54.756Z,13.07
2023-03-08T09:39:23.350Z,15.23
2023-03-08T09:41:58.763Z,12.52
2023-03-08T09:45:02.535Z,13.63
2023-03-08T09:47:46.726Z,14.32
2023-03-08T09:50:14.073Z,13.82
2023-03-08T09:53:12.515Z,13.68
2023-03-08T09:55:49.204Z,13.85
2023-03-08T09:58:43.567Z,14.23
2023-03-08T10:01:42.296Z,11.63
2023-03-08T10:04:36.152Z,11.93
2023-03-08T10:07:31.900Z,13.23
2023-03-08T10:10:48.129Z,11.90
2023-03-08T10:13:37.764Z,13.88
2023-03-08T10:16:25.072Z,12.02
2023-03-08T10:19:11.877Z,9.70
2023-03-08T10:21:44.471Z,11.27
2023-03-08T10:24:42.748Z,11.15
2023-03-08T10:27:23.871Z,11.35
2023-03-08T10:29:59.474Z,10.18
2023-03-08T10:32:36.177Z,11.65
2023-03-08T10:35:06.383Z,9.95
2023-03-08T10:37:34.558Z,10.10
2023-03-08T10:40:08.325Z,12.30
2023-03-08T10:42:36.931Z,11.63
2023-03-08T10:45:22.489Z,13.82
2023-03-08T10:48:03.491Z,11.57
2023-03-08T10:50:37.571Z,10.60
2023-03-08T10:53:19.782Z,14.27
2023-03-08T10:55:51.353Z,10.60
2023-03-08T10:58:39.853Z,11.77
2023-03-08T11:01:28.666Z,11.10
2023-03-08T11:04:18.681Z,12.32
2023-03-08T11:06:46.333Z,13.55
2023-03-08T11:09:36.992Z,11.88
2023-03-08T11:12:04.791Z,15.95
2023-03-08T11:14:32.661Z,15.15
2023-03-08T11:17:39.421Z,14.50
2023-03-08T11:20:25.058Z,14.13
2023-03-08T11:23:35.585Z,14.10
2023-03-08T11:26:44.948Z,14.27
2023-03-08T11:29:35.325Z,13.23
2023-03-08T11:33:15.096Z,13.73
2023-03-08T11:36:14.205Z,15.57
2023-03-08T11:38:43.419Z,13.93
2023-03-08T11:41:39.825Z,16.13
2023-03-08T11:44:19.255Z,15.77
2023-03-08T11:46:58.730Z,17.10
2023-03-08T11:49:47.002Z,16.75
2023-03-08T11:52:59.729Z,15.75
2023-03-08T11:55:55.613Z,15.05
2023-03-08T11:58:40.410Z,13.57
2023-03-08T12:01:39.009Z,11.82
2023-03-08T12:04:22.792Z,10.73
2023-03-08T12:06:54.996Z,12.15
2023-03-08T12:09:55.442Z,12.23
2023-03-08T12:12:44.376Z,12.60
2023-03-08T12:15:38.466Z,11.75
2023-03-08T12:18:45.969Z,11.43
2023-03-08T12:21:49.731Z,13.55
2023-03-08T12:24:37.145Z,11.35
2023-03-08T12:27:13.769Z,11.55
2023-03-08T12:30:35.251Z,12.45
2023-03-08T12:33:06.641Z,15.07
2023-03-08T12:35:57.278Z,14.73
2023-03-08T12:38:38.665Z,11.75
2023-03-08T12:41:23.324Z,9.80
2023-03-08T12:44:07.004Z,10.52
2023-03-08T12:47:03.468Z,11.80
2023-03-08T12:49:40.722Z,14.70
2023-03-08T12:52:36.979Z,12.57
2023-03-08T12:55:35.785Z,12.32
2023-03-08T12:58:05.856Z,13.48
2023-03-08T13:00:39.433Z,11.63
2023-03-08T13:03:39.464Z,13.45
2023-03-08T13:06:22.937Z,10.88
2023-03-08T13:09:04.207Z,12.27
2023-03-08T13:11:50.397Z,13.15
2023-03-08T13:14:41.736Z,12.85
2023-03-08T13:17:27.897Z,14.88
2023-03-08T13:19:58.268Z,16.17
2023-03-08T13:22:32.119Z,10.10
2023-03-08T13:25:17.459Z,10.23
2023-03-08T13:28:09.272Z,12.80
2023-03-08T13:31:00.991Z,10.65
2023-03-08T13:33:36.498Z,10.13
2023-03-08T13:36:22.342Z,11.88
2023-03-08T13:39:05.839Z,11.65
2023-03-08T13:41:39.064Z,11.00
2023-03-08T13:44:29.424Z,12.95
2023-03-08T13:47:04.113Z,10.70
2023-03-08T13:49:38.259Z,9.57
2023-03-08T13:52:21.909Z,9.73
2023-03-08T13:55:02.367Z,9.57
2023-03-08T13:57:36.680Z,10.75
2023-03-08T14:00:25.735Z,11.57
2023-03-08T14:02:54.866Z,14.88
2023-03-08T14:05:32.889Z,11.35
2023-03-08T14:08:07.591Z,9.73
2023-03-08T14:10:45.794Z,8.00
2023-03-08T14:13:36.204Z,9.95
2023-03-08T14:16:08.119Z,8.45
2023-03-08T14:18:45.517Z,8.88
2023-03-08T14:21:21.058Z,9.27
2023-03-08T14:23:56.895Z,9.40
2023-03-08T14:26:34.947Z,10.20
2023-03-08T14:29:22.750Z,13.38
2023-03-08T14:32:11.889Z,11.68
2023-03-08T14:34:44.930Z,11.60
2023-03-08T14:37:12.279Z,14.38
2023-03-08T14:39:47.213Z,13.05
2023-03-08T14:42:36.184Z,14.82
2023-03-08T14:45:19.257Z,12.32
2023-03-08T14:48:00.479Z,13.77
2023-03-08T14:50:33.549Z,16.95
2023-03-08T14:53:03.178Z,9.07
2023-03-08T14:55:38.764Z,12.80
2023-03-08T14:58:13.844Z,13.98
2023-03-08T15:00:57.564Z,12.68
2023-03-08T15:03:25.366Z,11.73
2023-03-08T15:05:55.492Z,9.70
2023-03-08T15:08:24.079Z,7.65
2023-03-08T15:10:52.900Z,9.65
2023-03-08T15:13:23.740Z,9.27
2023-03-08T15:15:51.719Z,8.55
2023-03-08T15:18:19.222Z,9.75
2023-03-08T15:20:50.392Z,10.40
2023-03-08T15:23:38.325Z,9.50
2023-03-08T15:26:07.658Z,10.13
2023-03-08T15:28:35.122Z,13.40
2023-03-08T15:31:02.994Z,9.90
2023-03-08T15:33:30.291Z,10.13
2023-03-08T15:35:59.206Z,17.00
2023-03-08T15:38:26.699Z,10.30
2023-03-08T15:40:54.419Z,12.73
2023-03-08T15:43:22.305Z,10.55
2023-03-08T15:45:49.889Z,12.60
2023-03-08T15:48:19.365Z,12.00
2023-03-08T15:50:47.248Z,13.43
2023-03-08T15:53:23.271Z,10.80
2023-03-08T15:55:58.301Z,12.73
2023-03-08T15:58:26.015Z,11.10
2023-03-08T16:00:57.416Z,13.23
2023-03-08T16:03:31.030Z,12.00
2023-03-08T16:06:00.200Z,13.35
2023-03-08T16:08:29.913Z,13.48
2023-03-08T16:11:03.894Z,13.80
2023-03-08T16:13:33.500Z,13.82
2023-03-08T16:16:05.495Z,15.40
2023-03-08T16:18:34.699Z,11.15
2023-03-08T16:21:09.179Z,14.02
2023-03-08T16:23:38.886Z,11.45
2023-03-08T16:26:16.969Z,10.85
2023-03-08T16:28:47.177Z,11.50
2023-03-08T16:31:16.669Z,15.50
2023-03-08T16:33:44.430Z,13.07
2023-03-08T16:36:12.808Z,11.73
2023-03-08T16:38:41.498Z,13.25
2023-03-08T16:41:13.261Z,14.50
2023-03-08T16:43:48.009Z,13.85
2023-03-08T16:46:22.907Z,15.80
2023-03-08T16:48:54.577Z,14.65
2023-03-08T16:51:28.181Z,13.13
2023-03-08T16:53:55.960Z,14.75
2023-03-08T16:56:30.315Z,14.35
2023-03-08T16:59:01.515Z,18.48
2023-03-08T17:01:30.542Z,15.65
2023-03-08T17:03:59.004Z,15.95
2023-03-08T17:06:30.503Z,16.80
2023-03-08T17:08:59.120Z,13.07
2023-03-08T17:11:31.187Z,16.27
2023-03-08T17:14:03.045Z,15.10
2023-03-08T17:16:32.652Z,14.73
2023-03-08T17:19:02.178Z,15.93
2023-03-08T17:21:31.433Z,14.73
2023-03-08T17:24:00.289Z,15.45
2023-03-08T17:26:28.228Z,16.20
2023-03-08T17:28:55.882Z,18.20
2023-03-08T17:31:25.402Z,14.60
2023-03-08T17:33:53.230Z,15.98
2023-03-08T17:36:21.181Z,18.00
2023-03-08T17:38:48.734Z,18.60
2023-03-08T17:41:17.183Z,21.23
2023-03-08T17:43:44.791Z,19.77
2023-03-08T17:46:21.395Z,20.77
2023-03-08T17:48:50.767Z,19.17
2023-03-08T17:51:22.979Z,22.25
2023-03-08T17:53:51.126Z,18.25
2023-03-08T17:56:28.672Z,26.42
2023-03-08T17:59:02.199Z,22.92
2023-03-08T18:01:32.126Z,31.33
2023-03-08T18:04:00.564Z,26.98
2023-03-08T18:06:29.686Z,25.90
2023-03-08T18:09:04.242Z,24.23
2023-03-08T18:11:37.537Z,22.35
2023-03-08T18:14:12.307Z,22.75
2023-03-08T18:16:41.702Z,22.40
2023-03-08T18:19:10.653Z,18.08
2023-03-08T18:21:41.272Z,20.27
2023-03-08T18:24:12.749Z,17.50
2023-03-08T18:26:40.445Z,19.80
2023-03-08T18:29:07.774Z,19.50
2023-03-08T18:31:37.395Z,18.42
2023-03-08T18:34:08.253Z,27.48
2023-03-08T18:36:38.323Z,21.38
2023-03-08T18:39:12.217Z,22.48
2023-03-08T18:41:40.197Z,21.08
2023-03-08T18:44:11.618Z,24.35
2023-03-08T18:46:39.637Z,22.70
2023-03-08T18:49:11.991Z,22.42
2023-03-08T18:51:41.935Z,22.88
2023-03-08T18:54:17.460Z,23.83
2023-03-08T18:56:45.193Z,25.45
2023-03-08T18:59:14.399Z,24.27
2023-03-08T19:01:42.137Z,25.98
2023-03-08T19:04:09.530Z,27.38
2023-03-08T19:06:37.594Z,28.92
2023-03-08T19:09:15.172Z,26.58
2023-03-08T19:11:43.147Z,27.15
2023-03-08T19:14:12.565Z,30.15
2023-03-08T19:16:40.540Z,29.73
2023-03-08T19:19:14.660Z,29.13
2023-03-08T19:21:46.501Z,29.02
2023-03-08T19:24:16.706Z,30.77
2023-03-08T19:26:49.037Z,29.05
2023-03-08T19:29:24.809Z,29.90
2023-03-08T19:31:59.649Z,30.90
2023-03-08T19:34:31.523Z,32.65
2023-03-08T19:37:00.269Z,31.88
2023-03-08T19:39:31.914Z,28.60
2023-03-08T19:42:11.092Z,32.10
2023-03-08T19:44:38.962Z,29.23
2023-03-08T19:47:06.822Z,28.98
2023-03-08T19:49:38.829Z,31.25
2023-03-08T19:52:07.567Z,32.72
2023-03-08T19:54:35.560Z,29.23
2023-03-08T19:57:03.710Z,31.35
2023-03-08T19:59:31.093Z,28.58
2023-03-08T20:01:58.773Z,31.63
2023-03-08T20:04:26.091Z,27.23
2023-03-08T20:06:53.744Z,27.25
2023-03-08T20:09:22.796Z,25.33
2023-03-08T20:11:57.440Z,30.15
2023-03-08T20:14:27.544Z,26.42
2023-03-08T20:16:56.880Z,25.98
2023-03-08T20:19:24.359Z,28.67
2023-03-08T20:21:52.022Z,28.30
2023-03-08T20:24:19.529Z,30.25
2023-03-08T20:26:47.355Z,31.55
2023-03-08T20:29:15.564Z,32.60
2023-03-08T20:31:45.131Z,30.30
2023-03-08T20:34:12.471Z,31.00
2023-03-08T20:36:40.207Z,34.15
2023-03-08T20:39:07.631Z,30.65
2023-03-08T20:41:35.362Z,30.67
2023-03-08T20:44:02.639Z,35.35
2023-03-08T20:46:33.619Z,31.67
2023-03-08T20:49:01.885Z,35.53
2023-03-08T20:51:29.723Z,29.83
2023-03-08T20:53:57.926Z,30.90
2023-03-08T20:56:26.600Z,35.70
2023-03-08T20:58:57.346Z,29.65
2023-03-08T21:01:30.367Z,31.40
2023-03-08T21:03:58.414Z,29.83
2023-03-08T21:06:30.780Z,34.00
2023-03-08T21:08:59.894Z,34.70
2023-03-08T21:11:28.524Z,38.05
2023-03-08T21:13:56.852Z,37.97
2023-03-08T21:16:27.488Z,41.83
2023-03-08T21:18:59.560Z,38.60
2023-03-08T21:21:30.764Z,36.50
2023-03-08T21:24:01.466Z,42.33
2023-03-08T21:26:30.284Z,39.65
2023-03-08T21:29:01.842Z,39.95
2023-03-08T21:31:32.241Z,38.75
2023-03-08T21:34:04.409Z,37.92
2023-03-08T21:36:32.992Z,43.35
2023-03-08T21:39:00.928Z,37.15
2023-03-08T21:41:32.645Z,38.63
2023-03-08T21:44:03.486Z,36.72
2023-03-08T21:46:31.943Z,43.00
2023-03-08T21:48:59.483Z,40.80
2023-03-08T21:51:27.253Z,38.45
2023-03-08T21:53:54.533Z,36.35
2023-03-08T21:56:22.045Z,38.60
2023-03-08T21:58:49.324Z,37.67
2023-03-08T22:01:27.499Z,37.90
2023-03-08T22:03:55.563Z,37.92
2023-03-08T22:06:24.546Z,36.83
2023-03-08T22:08:52.864Z,36.05
2023-03-08T22:11:22.873Z,40.05
2023-03-08T22:13:52.776Z,39.03
2023-03-08T22:16:21.414Z,30.02
2023-03-08T22:18:53.080Z,32.85
2023-03-08T22:21:21.983Z,29.70
2023-03-08T22:23:51.710Z,32.70
2023-03-08T22:26:21.065Z,30.08
2023-03-08T22:28:48.699Z,28.73
2023-03-08T22:31:20.656Z,28.63
2023-03-08T22:33:48.624Z,30.85
2023-03-08T22:36:18.810Z,28.92
2023-03-08T22:38:46.313Z,28.27
2023-03-08T22:41:18.657Z,29.08
2023-03-08T22:43:46.863Z,29.80
2023-03-08T22:46:24.661Z,29.15
2023-03-08T22:48:53.267Z,28.73
2023-03-08T22:51:22.789Z,32.10
2023-03-08T22:53:50.805Z,29.40
2023-03-08T22:56:26.063Z,26.67
2023-03-08T22:58:53.431Z,29.63
2023-03-08T23:01:24.337Z,27.00
2023-03-08T23:03:56.945Z,26.25
2023-03-08T23:06:28.355Z,28.40
2023-03-08T23:09:01.986Z,25.02
2023-03-08T23:11:29.889Z,23.52
2023-03-08T23:13:57.501Z,24.20
2023-03-08T23:16:35.784Z,22.85
2023-03-08T23:19:03.465Z,24.38
2023-03-08T23:21:31.982Z,26.35
2023-03-08T23:24:00.198Z,25.08
2023-03-08T23:26:28.756Z,24.77
2023-03-08T23:28:59.435Z,25.77
2023-03-08T23:31:30.481Z,23.10
2023-03-08T23:34:00.815Z,24.13
2023-03-08T23:36:32.007Z,25.98
2023-03-08T23:39:04.341Z,27.60
2023-03-08T23:41:33.149Z,25.30
2023-03-08T23:44:02.576Z,28.02
2023-03-08T23:46:30.901Z,22.98
2023-03-08T23:49:00.584Z,26.48
2023-03-08T23:51:31.117Z,25.80
2023-03-08T23:54:01.631Z,23.25
2023-03-08T23:56:40.810Z,21.33
2023-03-08T23:59:19.437Z,22.08
